Main page
METAR-TAF:

METAR-TAF

Airports :

Abu Simbel Airport

Abu Simbel, Egypt

latitude: 22-22-33N, longitude: 31-36-42E, elevation: 188 m

Current weather observation

The report was made 1 hour and 14 minutes ago, at 17:00 UTC
Wind 10 kt from the North
Temperature 34°C
Humidity 19%
Pressure 1009 hPa
Visibility 10 km or more
no clouds below 1500 m and no cumulonimbus

METAR: HEBL 161700Z 36010KT CAVOK 34/07 Q1009 NOSIG

Time: 20:14 (18:14 UTC)

Forecast

The report was made 1 hour and 14 minutes ago, at 17:00 UTC
Forecast valid from 16 at 18 UTC to 17 at 24 UTC
Wind 12 kt from the North
Visibility 10 km or more
no clouds below 1500 m and no cumulonimbus

TAF: HEBL 161700Z 1618/1724 36012KT CAVOK

Weather observations and forecasts of more than 4000 airports (METAR and TAF reports).

The available stations are represented by yellow and red dots on the map.

Hover mouse over dot to see the name of the station.

Then click to see weather observations and forecasts.

To change the map : click on the green buttons with a black cross to zoom in, on the green button with a dash to zoom out, or on the green arrows for adjacent maps.


METAR-TAF: